sensor_id;sensor_type;location;lat;lon;timestamp;pressure;altitude;pressure_sealevel;temperature;humidity
1480;BME280;732;51.698;4.886;2023-06-10T00:00:06;101488.78;;;17.98;53.61
1480;BME280;732;51.698;4.886;2023-06-10T00:02:43;101516.31;;;18.08;53.94
1480;BME280;732;51.698;4.886;2023-06-10T00:05:12;101506.94;;;18.04;53.69
1480;BME280;732;51.698;4.886;2023-06-10T00:07:40;101503.00;;;18.00;53.41
1480;BME280;732;51.698;4.886;2023-06-10T00:10:09;101512.81;;;18.01;53.36
1480;BME280;732;51.698;4.886;2023-06-10T00:12:38;101519.03;;;18.08;53.56
1480;BME280;732;51.698;4.886;2023-06-10T00:15:09;101494.44;;;17.96;53.67
1480;BME280;732;51.698;4.886;2023-06-10T00:17:38;101502.81;;;17.95;53.39
1480;BME280;732;51.698;4.886;2023-06-10T00:22:39;101501.59;;;17.91;53.11
1480;BME280;732;51.698;4.886;2023-06-10T00:25:09;101517.00;;;17.97;53.34
1480;BME280;732;51.698;4.886;2023-06-10T00:27:38;101512.00;;;17.94;53.43
1480;BME280;732;51.698;4.886;2023-06-10T00:30:09;101474.53;;;17.64;53.37
1480;BME280;732;51.698;4.886;2023-06-10T00:32:38;101512.03;;;17.80;53.43
1480;BME280;732;51.698;4.886;2023-06-10T00:35:08;101526.06;;;17.77;53.78
1480;BME280;732;51.698;4.886;2023-06-10T00:37:37;101502.94;;;17.55;53.79
1480;BME280;732;51.698;4.886;2023-06-10T00:40:07;101512.13;;;17.54;54.07
1480;BME280;732;51.698;4.886;2023-06-10T00:42:37;101505.91;;;17.40;54.33
1480;BME280;732;51.698;4.886;2023-06-10T00:45:06;101513.22;;;17.32;54.46
1480;BME280;732;51.698;4.886;2023-06-10T00:47:37;101482.81;;;17.10;54.50
1480;BME280;732;51.698;4.886;2023-06-10T00:50:09;101523.66;;;17.29;54.49
1480;BME280;732;51.698;4.886;2023-06-10T00:52:38;101525.72;;;17.27;54.51
1480;BME280;732;51.698;4.886;2023-06-10T00:55:08;101497.81;;;17.06;54.70
1480;BME280;732;51.698;4.886;2023-06-10T00:57:37;101524.09;;;17.19;54.79
1480;BME280;732;51.698;4.886;2023-06-10T01:00:08;101485.09;;;16.93;54.68
1480;BME280;732;51.698;4.886;2023-06-10T01:02:37;101489.25;;;16.96;54.36
1480;BME280;732;51.698;4.886;2023-06-10T01:05:06;101514.72;;;17.01;54.70
1480;BME280;732;51.698;4.886;2023-06-10T01:07:45;101505.53;;;16.89;54.53
1480;BME280;732;51.698;4.886;2023-06-10T01:10:20;101512.84;;;16.89;54.74
1480;BME280;732;51.698;4.886;2023-06-10T01:12:58;101518.69;;;16.85;54.90
1480;BME280;732;51.698;4.886;2023-06-10T01:15:31;101503.25;;;16.73;55.20
1480;BME280;732;51.698;4.886;2023-06-10T01:18:02;101508.00;;;16.71;55.02
1480;BME280;732;51.698;4.886;2023-06-10T01:20:32;101507.38;;;16.62;55.44
1480;BME280;732;51.698;4.886;2023-06-10T01:23:02;101494.47;;;16.50;55.10
1480;BME280;732;51.698;4.886;2023-06-10T01:25:31;101531.97;;;16.67;55.17
1480;BME280;732;51.698;4.886;2023-06-10T01:28:10;101523.03;;;16.66;55.45
1480;BME280;732;51.698;4.886;2023-06-10T01:30:48;101522.59;;;16.56;55.40
1480;BME280;732;51.698;4.886;2023-06-10T01:33:28;101526.97;;;16.57;55.60
1480;BME280;732;51.698;4.886;2023-06-10T01:35:59;101502.16;;;16.40;55.13
1480;BME280;732;51.698;4.886;2023-06-10T01:38:33;101500.28;;;16.34;55.51
1480;BME280;732;51.698;4.886;2023-06-10T01:41:05;101526.31;;;16.42;56.03
1480;BME280;732;51.698;4.886;2023-06-10T01:43:35;101497.91;;;16.17;56.13
1480;BME280;732;51.698;4.886;2023-06-10T01:46:06;101484.16;;;16.06;56.54
1480;BME280;732;51.698;4.886;2023-06-10T01:48:35;101497.47;;;16.07;56.45
1480;BME280;732;51.698;4.886;2023-06-10T01:51:03;101523.13;;;16.18;56.60
1480;BME280;732;51.698;4.886;2023-06-10T01:53:33;101504.13;;;16.04;57.15
1480;BME280;732;51.698;4.886;2023-06-10T01:56:01;101526.22;;;16.08;57.53
1480;BME280;732;51.698;4.886;2023-06-10T01:58:30;101524.97;;;16.04;57.45
1480;BME280;732;51.698;4.886;2023-06-10T02:00:58;101527.63;;;15.97;57.38
1480;BME280;732;51.698;4.886;2023-06-10T02:03:27;101527.19;;;15.94;57.55
1480;BME280;732;51.698;4.886;2023-06-10T02:05:55;101526.53;;;15.85;58.01
1480;BME280;732;51.698;4.886;2023-06-10T02:08:24;101469.13;;;15.48;57.64
1480;BME280;732;51.698;4.886;2023-06-10T02:10:53;101481.41;;;15.50;57.77
1480;BME280;732;51.698;4.886;2023-06-10T02:13:22;101531.09;;;15.78;57.81
1480;BME280;732;51.698;4.886;2023-06-10T02:15:53;101531.25;;;15.76;57.64
1480;BME280;732;51.698;4.886;2023-06-10T02:18:22;101533.34;;;15.74;57.96
1480;BME280;732;51.698;4.886;2023-06-10T02:20:50;101529.34;;;15.70;58.11
1480;BME280;732;51.698;4.886;2023-06-10T02:23:18;101522.00;;;15.57;58.49
1480;BME280;732;51.698;4.886;2023-06-10T02:25:47;101512.59;;;15.46;58.52
1480;BME280;732;51.698;4.886;2023-06-10T02:28:17;101540.28;;;15.55;58.60
1480;BME280;732;51.698;4.886;2023-06-10T02:30:45;101540.06;;;15.50;58.48
1480;BME280;732;51.698;4.886;2023-06-10T02:33:15;101544.00;;;15.47;58.62
1480;BME280;732;51.698;4.886;2023-06-10T02:35:45;101477.00;;;15.07;58.67
1480;BME280;732;51.698;4.886;2023-06-10T02:38:13;101540.25;;;15.42;58.56
1480;BME280;732;51.698;4.886;2023-06-10T02:40:42;101542.88;;;15.35;59.03
1480;BME280;732;51.698;4.886;2023-06-10T02:43:12;101541.03;;;15.35;58.96
1480;BME280;732;51.698;4.886;2023-06-10T02:45:42;101520.75;;;15.18;59.07
1480;BME280;732;51.698;4.886;2023-06-10T02:48:11;101523.84;;;15.21;59.01
1480;BME280;732;51.698;4.886;2023-06-10T02:50:40;101538.91;;;15.31;58.81
1480;BME280;732;51.698;4.886;2023-06-10T02:53:30;101536.16;;;15.24;59.38
1480;BME280;732;51.698;4.886;2023-06-10T02:56:05;101534.28;;;15.24;59.11
1480;BME280;732;51.698;4.886;2023-06-10T02:58:33;101541.56;;;15.24;59.18
1480;BME280;732;51.698;4.886;2023-06-10T03:01:04;101505.41;;;14.97;59.53
1480;BME280;732;51.698;4.886;2023-06-10T03:03:43;101526.72;;;15.13;59.19
1480;BME280;732;51.698;4.886;2023-06-10T03:06:15;101499.72;;;14.91;59.53
1480;BME280;732;51.698;4.886;2023-06-10T03:08:45;101516.84;;;14.99;59.76
1480;BME280;732;51.698;4.886;2023-06-10T03:11:16;101525.84;;;15.06;59.37
1480;BME280;732;51.698;4.886;2023-06-10T03:13:47;101545.25;;;15.16;59.38
1480;BME280;732;51.698;4.886;2023-06-10T03:16:19;101544.41;;;15.16;59.42
1480;BME280;732;51.698;4.886;2023-06-10T03:18:49;101512.41;;;14.91;59.27
1480;BME280;732;51.698;4.886;2023-06-10T03:21:17;101547.25;;;15.07;59.67
1480;BME280;732;51.698;4.886;2023-06-10T03:23:46;101536.97;;;14.96;60.05
1480;BME280;732;51.698;4.886;2023-06-10T03:26:14;101552.41;;;15.02;60.16
1480;BME280;732;51.698;4.886;2023-06-10T03:28:47;101534.84;;;14.91;60.25
1480;BME280;732;51.698;4.886;2023-06-10T03:31:15;101553.25;;;15.03;59.78
1480;BME280;732;51.698;4.886;2023-06-10T03:33:46;101551.59;;;15.02;60.15
1480;BME280;732;51.698;4.886;2023-06-10T03:36:15;101567.97;;;15.00;60.39
1480;BME280;732;51.698;4.886;2023-06-10T03:38:43;101550.91;;;14.93;60.02
1480;BME280;732;51.698;4.886;2023-06-10T03:41:12;101525.78;;;14.78;59.99
1480;BME280;732;51.698;4.886;2023-06-10T03:43:42;101559.03;;;15.00;60.01
1480;BME280;732;51.698;4.886;2023-06-10T03:46:13;101568.44;;;15.04;60.21
1480;BME280;732;51.698;4.886;2023-06-10T03:48:42;101528.31;;;14.79;59.82
1480;BME280;732;51.698;4.886;2023-06-10T03:51:11;101504.88;;;14.65;59.95
1480;BME280;732;51.698;4.886;2023-06-10T03:53:40;101570.31;;;15.03;59.98
1480;BME280;732;51.698;4.886;2023-06-10T03:56:08;101566.16;;;15.07;59.69
1480;BME280;732;51.698;4.886;2023-06-10T03:58:36;101565.16;;;15.08;60.02
1480;BME280;732;51.698;4.886;2023-06-10T04:01:06;101561.22;;;15.11;59.86
1480;BME280;732;51.698;4.886;2023-06-10T04:03:35;101565.59;;;15.12;60.05
1480;BME280;732;51.698;4.886;2023-06-10T04:06:04;101543.59;;;14.94;60.16
1480;BME280;732;51.698;4.886;2023-06-10T04:08:34;101418.06;;;14.18;59.96
1480;BME280;732;51.698;4.886;2023-06-10T04:11:02;101576.84;;;15.16;59.79
1480;BME280;732;51.698;4.886;2023-06-10T04:13:31;101534.72;;;15.00;59.90
1480;BME280;732;51.698;4.886;2023-06-10T04:15:59;101570.25;;;15.25;59.99
1480;BME280;732;51.698;4.886;2023-06-10T04:18:28;101528.50;;;14.99;59.60
1480;BME280;732;51.698;4.886;2023-06-10T04:21:00;101575.72;;;15.32;59.71
1480;BME280;732;51.698;4.886;2023-06-10T04:23:30;101585.13;;;15.36;59.24
1480;BME280;732;51.698;4.886;2023-06-10T04:26:03;101583.88;;;15.38;59.16
1480;BME280;732;51.698;4.886;2023-06-10T04:28:32;101586.22;;;15.42;59.42
1480;BME280;732;51.698;4.886;2023-06-10T04:31:01;101593.72;;;15.46;58.99
1480;BME280;732;51.698;4.886;2023-06-10T04:33:32;101567.63;;;15.32;59.25
1480;BME280;732;51.698;4.886;2023-06-10T04:36:03;101575.19;;;15.43;59.01
1480;BME280;732;51.698;4.886;2023-06-10T04:38:34;101591.09;;;15.60;59.11
1480;BME280;732;51.698;4.886;2023-06-10T04:41:04;101599.66;;;15.63;58.58
1480;BME280;732;51.698;4.886;2023-06-10T04:43:34;101568.34;;;15.47;58.98
1480;BME280;732;51.698;4.886;2023-06-10T04:46:04;101578.38;;;15.53;58.95
1480;BME280;732;51.698;4.886;2023-06-10T04:48:35;101543.13;;;15.40;58.72
1480;BME280;732;51.698;4.886;2023-06-10T04:51:04;101586.22;;;15.77;58.21
1480;BME280;732;51.698;4.886;2023-06-10T04:53:35;101597.34;;;15.88;58.34
1480;BME280;732;51.698;4.886;2023-06-10T04:56:06;101604.88;;;15.93;58.27
1480;BME280;732;51.698;4.886;2023-06-10T04:58:35;101609.47;;;15.99;58.44
1480;BME280;732;51.698;4.886;2023-06-10T05:01:03;101607.84;;;16.05;57.91
1480;BME280;732;51.698;4.886;2023-06-10T05:03:34;101608.06;;;16.10;57.63
1480;BME280;732;51.698;4.886;2023-06-10T05:06:05;101596.59;;;16.08;58.30
1480;BME280;732;51.698;4.886;2023-06-10T05:08:34;101603.13;;;16.20;58.19
1480;BME280;732;51.698;4.886;2023-06-10T05:11:02;101581.00;;;16.10;57.79
1480;BME280;732;51.698;4.886;2023-06-10T05:13:34;101608.38;;;16.29;57.50
1480;BME280;732;51.698;4.886;2023-06-10T05:16:03;101584.38;;;16.26;57.91
1480;BME280;732;51.698;4.886;2023-06-10T05:18:31;101587.09;;;16.32;58.02
1480;BME280;732;51.698;4.886;2023-06-10T05:21:03;101568.78;;;16.28;57.39
1480;BME280;732;51.698;4.886;2023-06-10T05:23:32;101603.44;;;16.52;57.39
1480;BME280;732;51.698;4.886;2023-06-10T05:26:00;101587.59;;;16.49;57.05
1480;BME280;732;51.698;4.886;2023-06-10T05:28:29;101605.56;;;16.64;57.21
1480;BME280;732;51.698;4.886;2023-06-10T05:30:59;101506.69;;;16.13;56.90
1480;BME280;732;51.698;4.886;2023-06-10T05:33:27;101476.03;;;15.99;56.94
1480;BME280;732;51.698;4.886;2023-06-10T05:35:58;101603.53;;;16.73;56.89
1480;BME280;732;51.698;4.886;2023-06-10T05:38:28;101593.09;;;16.83;56.61
1480;BME280;732;51.698;4.886;2023-06-10T05:40:59;101579.34;;;16.78;56.79
1480;BME280;732;51.698;4.886;2023-06-10T05:43:33;101607.28;;;16.98;56.23
1480;BME280;732;51.698;4.886;2023-06-10T05:46:05;101571.63;;;16.81;56.68
1480;BME280;732;51.698;4.886;2023-06-10T05:48:34;101577.69;;;16.90;56.34
1480;BME280;732;51.698;4.886;2023-06-10T05:51:06;101399.19;;;15.86;56.52
1480;BME280;732;51.698;4.886;2023-06-10T05:53:37;101504.66;;;16.48;56.16
1480;BME280;732;51.698;4.886;2023-06-10T05:56:07;101575.41;;;17.00;56.04
1480;BME280;732;51.698;4.886;2023-06-10T05:58:36;101616.28;;;17.32;56.15
1480;BME280;732;51.698;4.886;2023-06-10T06:01:08;101617.94;;;17.40;55.93
1480;BME280;732;51.698;4.886;2023-06-10T06:03:37;101614.41;;;17.46;56.00
1480;BME280;732;51.698;4.886;2023-06-10T06:06:05;101612.31;;;17.55;55.46
1480;BME280;732;51.698;4.886;2023-06-10T06:08:34;101532.44;;;17.17;55.00
1480;BME280;732;51.698;4.886;2023-06-10T06:11:02;101611.06;;;17.71;54.95
1480;BME280;732;51.698;4.886;2023-06-10T06:13:34;101562.41;;;17.49;55.33
1480;BME280;732;51.698;4.886;2023-06-10T06:16:03;101610.63;;;17.81;55.04
1480;BME280;732;51.698;4.886;2023-06-10T06:18:33;101616.88;;;17.88;54.54
1480;BME280;732;51.698;4.886;2023-06-10T06:21:02;101568.25;;;17.73;54.01
1480;BME280;732;51.698;4.886;2023-06-10T06:23:33;101622.66;;;18.12;54.17
1480;BME280;732;51.698;4.886;2023-06-10T06:26:03;101594.69;;;18.05;54.37
1480;BME280;732;51.698;4.886;2023-06-10T06:28:37;101614.88;;;18.16;53.94
1480;BME280;732;51.698;4.886;2023-06-10T06:31:07;101590.91;;;18.06;54.05
1480;BME280;732;51.698;4.886;2023-06-10T06:33:37;101543.56;;;17.81;53.67
1480;BME280;732;51.698;4.886;2023-06-10T06:36:06;101623.59;;;18.38;53.41
1480;BME280;732;51.698;4.886;2023-06-10T06:38:36;101571.63;;;18.21;53.55
1480;BME280;732;51.698;4.886;2023-06-10T06:41:05;101592.44;;;18.34;53.92
1480;BME280;732;51.698;4.886;2023-06-10T06:43:34;101496.78;;;17.86;53.73
1480;BME280;732;51.698;4.886;2023-06-10T06:46:09;101625.31;;;18.71;53.43
1480;BME280;732;51.698;4.886;2023-06-10T06:48:41;101576.75;;;18.42;52.90
1480;BME280;732;51.698;4.886;2023-06-10T06:51:10;101565.25;;;18.47;52.75
1480;BME280;732;51.698;4.886;2023-06-10T06:53:39;101503.91;;;18.19;52.59
1480;BME280;732;51.698;4.886;2023-06-10T06:56:11;101620.53;;;18.98;52.68
1480;BME280;732;51.698;4.886;2023-06-10T06:58:43;101572.34;;;18.80;52.43
1480;BME280;732;51.698;4.886;2023-06-10T07:01:12;101618.16;;;19.08;52.24
1480;BME280;732;51.698;4.886;2023-06-10T07:03:44;101554.34;;;18.79;52.53
1480;BME280;732;51.698;4.886;2023-06-10T07:06:16;101634.34;;;19.29;52.71
1480;BME280;732;51.698;4.886;2023-06-10T07:08:49;101634.66;;;19.39;51.87
1480;BME280;732;51.698;4.886;2023-06-10T07:11:17;101622.94;;;19.38;52.16
1480;BME280;732;51.698;4.886;2023-06-10T07:13:46;101635.97;;;19.55;51.69
1480;BME280;732;51.698;4.886;2023-06-10T07:16:16;101573.94;;;19.20;51.72
1480;BME280;732;51.698;4.886;2023-06-10T07:18:49;101632.91;;;19.70;51.52
1480;BME280;732;51.698;4.886;2023-06-10T07:21:17;101627.84;;;19.73;51.01
1480;BME280;732;51.698;4.886;2023-06-10T07:23:51;101642.75;;;19.89;51.21
1480;BME280;732;51.698;4.886;2023-06-10T07:26:22;101595.63;;;19.70;51.69
1480;BME280;732;51.698;4.886;2023-06-10T07:28:50;101509.84;;;19.24;50.99
1480;BME280;732;51.698;4.886;2023-06-10T07:31:19;101647.88;;;20.23;50.85
1480;BME280;732;51.698;4.886;2023-06-10T07:33:49;101642.41;;;20.42;50.18
1480;BME280;732;51.698;4.886;2023-06-10T07:36:17;101649.41;;;20.49;50.19
1480;BME280;732;51.698;4.886;2023-06-10T07:38:45;101642.09;;;20.80;49.40
1480;BME280;732;51.698;4.886;2023-06-10T07:41:14;101629.22;;;20.99;48.71
1480;BME280;732;51.698;4.886;2023-06-10T07:43:45;101638.28;;;21.35;48.27
1480;BME280;732;51.698;4.886;2023-06-10T07:46:21;101631.09;;;21.65;47.45
1480;BME280;732;51.698;4.886;2023-06-10T07:48:53;101604.25;;;21.74;46.65
1480;BME280;732;51.698;4.886;2023-06-10T07:51:24;101643.69;;;22.30;46.10
1480;BME280;732;51.698;4.886;2023-06-10T07:53:55;101647.53;;;22.87;44.92
1480;BME280;732;51.698;4.886;2023-06-10T07:56:23;101641.00;;;23.96;43.17
1480;BME280;732;51.698;4.886;2023-06-10T07:58:53;101640.91;;;25.17;40.22
1480;BME280;732;51.698;4.886;2023-06-10T08:01:24;101611.50;;;26.03;38.00
1480;BME280;732;51.698;4.886;2023-06-10T08:03:54;101627.69;;;27.25;35.58
1480;BME280;732;51.698;4.886;2023-06-10T08:06:23;101639.88;;;28.15;34.74
1480;BME280;732;51.698;4.886;2023-06-10T08:08:51;101636.09;;;28.90;33.53
1480;BME280;732;51.698;4.886;2023-06-10T08:11:19;101586.91;;;29.22;31.54
1480;BME280;732;51.698;4.886;2023-06-10T08:13:48;101641.53;;;30.08;30.46
1480;BME280;732;51.698;4.886;2023-06-10T08:16:16;101640.66;;;30.70;29.64
1480;BME280;732;51.698;4.886;2023-06-10T08:18:45;101637.97;;;31.17;28.96
1480;BME280;732;51.698;4.886;2023-06-10T08:21:14;101618.28;;;31.33;28.86
1480;BME280;732;51.698;4.886;2023-06-10T08:23:43;101617.50;;;31.74;28.35
1480;BME280;732;51.698;4.886;2023-06-10T08:26:12;101644.66;;;32.27;27.42
1480;BME280;732;51.698;4.886;2023-06-10T08:28:40;101643.53;;;32.42;27.43
1480;BME280;732;51.698;4.886;2023-06-10T08:31:08;101637.69;;;32.67;26.35
1480;BME280;732;51.698;4.886;2023-06-10T08:33:37;101635.03;;;32.84;26.28
1480;BME280;732;51.698;4.886;2023-06-10T08:36:05;101646.69;;;33.18;26.56
1480;BME280;732;51.698;4.886;2023-06-10T08:38:35;101612.19;;;33.19;26.12
1480;BME280;732;51.698;4.886;2023-06-10T08:41:06;101620.59;;;33.28;24.94
1480;BME280;732;51.698;4.886;2023-06-10T08:43:42;101611.22;;;33.23;25.30
1480;BME280;732;51.698;4.886;2023-06-10T08:46:12;101641.91;;;33.41;25.16
1480;BME280;732;51.698;4.886;2023-06-10T08:48:43;101618.34;;;33.38;25.30
1480;BME280;732;51.698;4.886;2023-06-10T08:51:14;101640.41;;;33.66;25.31
1480;BME280;732;51.698;4.886;2023-06-10T08:53:52;101642.31;;;33.57;24.66
1480;BME280;732;51.698;4.886;2023-06-10T08:56:24;101631.66;;;33.50;25.59
1480;BME280;732;51.698;4.886;2023-06-10T08:58:53;101631.03;;;33.62;25.22
1480;BME280;732;51.698;4.886;2023-06-10T09:01:23;101622.06;;;33.65;25.11
1480;BME280;732;51.698;4.886;2023-06-10T09:03:52;101635.72;;;33.84;24.16
1480;BME280;732;51.698;4.886;2023-06-10T09:06:21;101601.91;;;33.68;24.30
1480;BME280;732;51.698;4.886;2023-06-10T09:08:52;101629.50;;;33.87;23.56
1480;BME280;732;51.698;4.886;2023-06-10T09:11:20;101634.69;;;33.71;24.52
1480;BME280;732;51.698;4.886;2023-06-10T09:13:49;101643.09;;;33.89;24.54
1480;BME280;732;51.698;4.886;2023-06-10T09:16:17;101639.50;;;33.89;24.49
1480;BME280;732;51.698;4.886;2023-06-10T09:18:46;101633.13;;;33.97;24.06
1480;BME280;732;51.698;4.886;2023-06-10T09:21:15;101623.63;;;33.98;24.11
1480;BME280;732;51.698;4.886;2023-06-10T09:23:44;101633.97;;;34.15;24.11
1480;BME280;732;51.698;4.886;2023-06-10T09:26:15;101632.97;;;34.11;24.00
1480;BME280;732;51.698;4.886;2023-06-10T09:28:44;101634.78;;;34.15;24.59
1480;BME280;732;51.698;4.886;2023-06-10T09:31:13;101618.53;;;33.82;24.43
1480;BME280;732;51.698;4.886;2023-06-10T09:33:45;101641.63;;;33.92;24.66
1480;BME280;732;51.698;4.886;2023-06-10T09:36:22;101646.63;;;33.81;24.66
1480;BME280;732;51.698;4.886;2023-06-10T09:38:51;101598.13;;;33.55;24.13
1480;BME280;732;51.698;4.886;2023-06-10T09:41:22;101633.53;;;33.72;24.40
1480;BME280;732;51.698;4.886;2023-06-10T09:43:59;101645.22;;;33.92;23.83
1480;BME280;732;51.698;4.886;2023-06-10T09:46:31;101622.88;;;33.75;24.77
1480;BME280;732;51.698;4.886;2023-06-10T09:49:00;101616.56;;;33.83;24.07
1480;BME280;732;51.698;4.886;2023-06-10T09:51:29;101605.03;;;33.67;24.55
1480;BME280;732;51.698;4.886;2023-06-10T09:53:59;101634.28;;;34.04;24.17
1480;BME280;732;51.698;4.886;2023-06-10T09:56:35;101618.53;;;33.91;24.02
1480;BME280;732;51.698;4.886;2023-06-10T09:59:04;101632.94;;;33.93;24.16
1480;BME280;732;51.698;4.886;2023-06-10T10:01:33;101601.69;;;33.47;24.38
1480;BME280;732;51.698;4.886;2023-06-10T10:04:02;101590.41;;;33.44;24.24
1480;BME280;732;51.698;4.886;2023-06-10T10:06:34;101610.75;;;33.70;24.43
1480;BME280;732;51.698;4.886;2023-06-10T10:09:03;101594.00;;;33.44;23.99
1480;BME280;732;51.698;4.886;2023-06-10T10:11:34;101621.88;;;33.62;23.72
1480;BME280;732;51.698;4.886;2023-06-10T10:14:04;101607.75;;;33.49;23.47
1480;BME280;732;51.698;4.886;2023-06-10T10:16:40;101621.88;;;33.62;24.18
1480;BME280;732;51.698;4.886;2023-06-10T10:19:16;101617.47;;;33.69;23.95
1480;BME280;732;51.698;4.886;2023-06-10T10:21:53;101608.84;;;33.80;24.43
1480;BME280;732;51.698;4.886;2023-06-10T10:24:30;101614.72;;;33.78;24.57
1480;BME280;732;51.698;4.886;2023-06-10T10:27:11;101592.59;;;33.73;24.75
1480;BME280;732;51.698;4.886;2023-06-10T10:29:46;101611.16;;;33.86;23.78
1480;BME280;732;51.698;4.886;2023-06-10T10:32:16;101600.19;;;33.81;24.15
1480;BME280;732;51.698;4.886;2023-06-10T10:34:57;101602.31;;;33.84;24.15
1480;BME280;732;51.698;4.886;2023-06-10T10:37:28;101584.25;;;33.73;24.55
1480;BME280;732;51.698;4.886;2023-06-10T10:39:58;101563.63;;;33.65;24.63
1480;BME280;732;51.698;4.886;2023-06-10T10:42:30;101590.22;;;33.98;24.67
1480;BME280;732;51.698;4.886;2023-06-10T10:44:59;101605.94;;;33.94;25.06
1480;BME280;732;51.698;4.886;2023-06-10T10:47:28;101593.91;;;33.76;24.63
1480;BME280;732;51.698;4.886;2023-06-10T10:49:59;101596.16;;;33.56;24.78
1480;BME280;732;51.698;4.886;2023-06-10T10:52:51;101602.09;;;33.81;24.92
1480;BME280;732;51.698;4.886;2023-06-10T10:55:20;101595.09;;;33.83;24.16
1480;BME280;732;51.698;4.886;2023-06-10T10:58:02;101598.22;;;33.91;23.95
1480;BME280;732;51.698;4.886;2023-06-10T11:00:32;101578.91;;;33.85;24.00
1480;BME280;732;51.698;4.886;2023-06-10T11:03:06;101587.41;;;33.89;24.67
1480;BME280;732;51.698;4.886;2023-06-10T11:05:40;101575.31;;;34.02;23.95
1480;BME280;732;51.698;4.886;2023-06-10T11:08:11;101570.72;;;34.15;23.85
1480;BME280;732;51.698;4.886;2023-06-10T11:10:50;101585.63;;;34.19;23.19
1480;BME280;732;51.698;4.886;2023-06-10T11:13:22;101589.91;;;34.34;23.77
1480;BME280;732;51.698;4.886;2023-06-10T11:15:51;101560.16;;;33.68;23.14
1480;BME280;732;51.698;4.886;2023-06-10T11:18:24;101576.97;;;33.95;24.29
1480;BME280;732;51.698;4.886;2023-06-10T11:20:59;101545.00;;;33.83;25.35
1480;BME280;732;51.698;4.886;2023-06-10T11:23:39;101591.88;;;34.16;24.29
1480;BME280;732;51.698;4.886;2023-06-10T11:26:30;101575.16;;;34.16;23.41
1480;BME280;732;51.698;4.886;2023-06-10T11:29:08;101536.50;;;34.06;23.48
1480;BME280;732;51.698;4.886;2023-06-10T11:31:49;101577.44;;;34.23;22.98
1480;BME280;732;51.698;4.886;2023-06-10T11:34:23;101499.78;;;33.69;23.32
1480;BME280;732;51.698;4.886;2023-06-10T11:36:53;101526.00;;;33.85;22.48
1480;BME280;732;51.698;4.886;2023-06-10T11:39:22;101562.03;;;34.26;22.51
1480;BME280;732;51.698;4.886;2023-06-10T11:41:53;101563.84;;;34.39;23.07
1480;BME280;732;51.698;4.886;2023-06-10T11:44:28;101480.13;;;33.74;22.39
1480;BME280;732;51.698;4.886;2023-06-10T11:46:59;101562.72;;;34.31;22.85
1480;BME280;732;51.698;4.886;2023-06-10T11:49:27;101557.97;;;34.32;22.70
1480;BME280;732;51.698;4.886;2023-06-10T11:51:55;101531.75;;;34.07;22.98
1480;BME280;732;51.698;4.886;2023-06-10T11:54:24;101562.22;;;34.38;22.72
1480;BME280;732;51.698;4.886;2023-06-10T11:56:57;101486.69;;;34.04;23.71
1480;BME280;732;51.698;4.886;2023-06-10T11:59:29;101529.47;;;34.35;23.04
1480;BME280;732;51.698;4.886;2023-06-10T12:01:57;101525.00;;;34.25;22.89
1480;BME280;732;51.698;4.886;2023-06-10T12:04:27;101520.59;;;34.07;23.76
1480;BME280;732;51.698;4.886;2023-06-10T12:06:56;101545.50;;;34.29;24.63
1480;BME280;732;51.698;4.886;2023-06-10T12:09:26;101531.72;;;34.24;23.59
1480;BME280;732;51.698;4.886;2023-06-10T12:11:58;101545.81;;;34.45;23.69
1480;BME280;732;51.698;4.886;2023-06-10T12:15:03;101538.13;;;34.51;23.65
1480;BME280;732;51.698;4.886;2023-06-10T12:17:37;101533.00;;;34.62;24.28
1480;BME280;732;51.698;4.886;2023-06-10T12:20:08;101544.28;;;34.65;22.59
1480;BME280;732;51.698;4.886;2023-06-10T12:22:40;101489.97;;;34.33;22.41
1480;BME280;732;51.698;4.886;2023-06-10T12:25:11;101474.41;;;34.06;22.72
1480;BME280;732;51.698;4.886;2023-06-10T12:27:50;101510.44;;;34.28;22.97
1480;BME280;732;51.698;4.886;2023-06-10T12:30:22;101535.50;;;34.37;22.69
1480;BME280;732;51.698;4.886;2023-06-10T12:32:51;101525.72;;;34.31;22.75
1480;BME280;732;51.698;4.886;2023-06-10T12:35:22;101506.84;;;34.10;22.85
1480;BME280;732;51.698;4.886;2023-06-10T12:38:01;101540.25;;;34.37;22.47
1480;BME280;732;51.698;4.886;2023-06-10T12:40:33;101516.66;;;34.25;23.56
1480;BME280;732;51.698;4.886;2023-06-10T12:43:03;101527.00;;;34.25;23.20
1480;BME280;732;51.698;4.886;2023-06-10T12:45:36;101529.44;;;34.26;22.49
1480;BME280;732;51.698;4.886;2023-06-10T12:48:18;101534.03;;;34.40;22.98
1480;BME280;732;51.698;4.886;2023-06-10T12:50:51;101530.44;;;34.30;22.49
1480;BME280;732;51.698;4.886;2023-06-10T12:53:21;101506.84;;;34.19;22.56
1480;BME280;732;51.698;4.886;2023-06-10T12:55:51;101477.38;;;33.92;23.02
1480;BME280;732;51.698;4.886;2023-06-10T12:58:21;101481.63;;;33.98;23.34
1480;BME280;732;51.698;4.886;2023-06-10T13:00:52;101520.59;;;34.24;23.24
1480;BME280;732;51.698;4.886;2023-06-10T13:03:24;101502.72;;;34.25;22.90
1480;BME280;732;51.698;4.886;2023-06-10T13:05:52;101517.31;;;34.48;24.02
1480;BME280;732;51.698;4.886;2023-06-10T13:08:21;101517.75;;;34.59;22.97
1480;BME280;732;51.698;4.886;2023-06-10T13:10:51;101510.53;;;34.58;22.62
1480;BME280;732;51.698;4.886;2023-06-10T13:13:20;101517.09;;;34.62;22.37
1480;BME280;732;51.698;4.886;2023-06-10T13:15:48;101486.63;;;34.57;22.88
1480;BME280;732;51.698;4.886;2023-06-10T13:18:20;101489.25;;;34.62;22.70
1480;BME280;732;51.698;4.886;2023-06-10T13:20:48;101508.84;;;34.92;23.10
1480;BME280;732;51.698;4.886;2023-06-10T13:23:16;101504.91;;;34.93;22.67
1480;BME280;732;51.698;4.886;2023-06-10T13:25:45;101507.78;;;35.06;22.78
1480;BME280;732;51.698;4.886;2023-06-10T13:28:14;101471.19;;;34.77;22.59
1480;BME280;732;51.698;4.886;2023-06-10T13:30:45;101489.50;;;35.17;21.50
1480;BME280;732;51.698;4.886;2023-06-10T13:33:22;101451.28;;;34.88;21.16
1480;BME280;732;51.698;4.886;2023-06-10T13:35:51;101492.72;;;34.98;20.49
1480;BME280;732;51.698;4.886;2023-06-10T13:38:19;101494.50;;;35.03;20.48
1480;BME280;732;51.698;4.886;2023-06-10T13:40:48;101477.47;;;34.95;20.50
1480;BME280;732;51.698;4.886;2023-06-10T13:43:18;101485.72;;;34.83;21.17